Interlachen, Florida
Current Conditions -  °F | °C
As of 1:53 PM on Saturday 25 Oct 2014 (Local Time) from KGNV Reporting Station
Clear Clear  
Wind Chill: 76°   Ceiling: Unl
Heat Index: 76°   Visibility: 10mi
Dew Point: 50°   Wind: 9mph
Humidity: 40%   Direction: 20°NNE
Pressure: 29.99"   Gusts: NA
Location:  29.62°N, 81.9°W
Report Text: KGNV 251753Z 02008KT 350V050 10SM CLR 24/10 A2999 RMK AO2 SLP154 T02440100 10250 20083 58017
Loading
Personal Weather Stations






























Interactive Weather Map
Tropical Storm Tracking
New forecast layout! Learn more

10-Day Weather Forecast

Advertisements
Track Severe Weather on mobile